sensor_id;sensor_type;location;lat;lon;timestamp;temperature;humidity
7606;DHT22;3844;53.360;9.738;2022-12-18T00:01:48;-8.70;95.70
7606;DHT22;3844;53.360;9.738;2022-12-18T00:03:49;-8.70;95.70
7606;DHT22;3844;53.360;9.738;2022-12-18T00:05:51;-8.70;95.70
7606;DHT22;3844;53.360;9.738;2022-12-18T00:07:52;-8.70;95.70
7606;DHT22;3844;53.360;9.738;2022-12-18T00:09:53;-8.80;95.70
7606;DHT22;3844;53.360;9.738;2022-12-18T00:11:54;-8.80;95.70
7606;DHT22;3844;53.360;9.738;2022-12-18T00:13:56;-8.80;95.70
7606;DHT22;3844;53.360;9.738;2022-12-18T00:16:05;-8.80;95.70
7606;DHT22;3844;53.360;9.738;2022-12-18T00:18:06;-8.90;95.70
7606;DHT22;3844;53.360;9.738;2022-12-18T00:20:08;-8.90;95.70
7606;DHT22;3844;53.360;9.738;2022-12-18T00:22:09;-8.90;95.70
7606;DHT22;3844;53.360;9.738;2022-12-18T00:24:10;-8.90;95.70
7606;DHT22;3844;53.360;9.738;2022-12-18T00:26:20;-8.90;95.70
7606;DHT22;3844;53.360;9.738;2022-12-18T00:28:21;-8.90;95.70
7606;DHT22;3844;53.360;9.738;2022-12-18T00:30:21;-8.90;95.70
7606;DHT22;3844;53.360;9.738;2022-12-18T00:32:22;-8.90;95.70
7606;DHT22;3844;53.360;9.738;2022-12-18T00:34:23;-8.90;95.70
7606;DHT22;3844;53.360;9.738;2022-12-18T00:36:29;-8.90;95.70
7606;DHT22;3844;53.360;9.738;2022-12-18T00:38:30;-8.90;95.70
7606;DHT22;3844;53.360;9.738;2022-12-18T00:40:31;-8.90;95.70
7606;DHT22;3844;53.360;9.738;2022-12-18T00:42:36;-8.90;95.70
7606;DHT22;3844;53.360;9.738;2022-12-18T00:44:55;-8.90;95.70
7606;DHT22;3844;53.360;9.738;2022-12-18T00:46:56;-8.90;95.70
7606;DHT22;3844;53.360;9.738;2022-12-18T00:48:57;-8.90;95.70
7606;DHT22;3844;53.360;9.738;2022-12-18T00:50:58;-8.90;95.70
7606;DHT22;3844;53.360;9.738;2022-12-18T00:52:59;-8.90;95.70
7606;DHT22;3844;53.360;9.738;2022-12-18T00:55:00;-8.90;95.70
7606;DHT22;3844;53.360;9.738;2022-12-18T00:57:00;-8.80;95.70
7606;DHT22;3844;53.360;9.738;2022-12-18T00:59:01;-8.90;95.70
7606;DHT22;3844;53.360;9.738;2022-12-18T01:01:04;-8.90;95.70
7606;DHT22;3844;53.360;9.738;2022-12-18T01:03:05;-8.90;95.70
7606;DHT22;3844;53.360;9.738;2022-12-18T01:05:07;-8.90;95.70
7606;DHT22;3844;53.360;9.738;2022-12-18T01:07:08;-8.90;95.70
7606;DHT22;3844;53.360;9.738;2022-12-18T01:09:08;-8.90;95.70
7606;DHT22;3844;53.360;9.738;2022-12-18T01:11:12;-8.90;95.70
7606;DHT22;3844;53.360;9.738;2022-12-18T01:13:13;-8.90;95.70
7606;DHT22;3844;53.360;9.738;2022-12-18T01:15:15;-8.90;95.70
7606;DHT22;3844;53.360;9.738;2022-12-18T01:17:16;-8.90;95.70
7606;DHT22;3844;53.360;9.738;2022-12-18T01:19:16;-8.90;95.70
7606;DHT22;3844;53.360;9.738;2022-12-18T01:21:17;-8.90;95.70
7606;DHT22;3844;53.360;9.738;2022-12-18T01:23:18;-8.90;95.70
7606;DHT22;3844;53.360;9.738;2022-12-18T01:25:19;-8.90;95.70
7606;DHT22;3844;53.360;9.738;2022-12-18T01:27:19;-8.90;95.70
7606;DHT22;3844;53.360;9.738;2022-12-18T01:29:20;-8.90;95.70
7606;DHT22;3844;53.360;9.738;2022-12-18T01:31:27;-8.90;95.70
7606;DHT22;3844;53.360;9.738;2022-12-18T01:33:28;-8.90;95.70
7606;DHT22;3844;53.360;9.738;2022-12-18T01:35:29;-8.90;95.70
7606;DHT22;3844;53.360;9.738;2022-12-18T01:37:30;-8.90;95.70
7606;DHT22;3844;53.360;9.738;2022-12-18T01:39:31;-9.00;95.70
7606;DHT22;3844;53.360;9.738;2022-12-18T01:41:35;-9.00;95.70
7606;DHT22;3844;53.360;9.738;2022-12-18T01:43:56;-8.90;95.70
7606;DHT22;3844;53.360;9.738;2022-12-18T01:45:59;-8.90;95.70
7606;DHT22;3844;53.360;9.738;2022-12-18T01:48:03;-8.90;95.70
7606;DHT22;3844;53.360;9.738;2022-12-18T01:50:13;-8.90;95.70
7606;DHT22;3844;53.360;9.738;2022-12-18T01:52:15;-8.90;95.70
7606;DHT22;3844;53.360;9.738;2022-12-18T01:54:17;-8.90;95.70
7606;DHT22;3844;53.360;9.738;2022-12-18T01:56:20;-8.90;95.70
7606;DHT22;3844;53.360;9.738;2022-12-18T01:58:33;-8.90;95.70
7606;DHT22;3844;53.360;9.738;2022-12-18T02:00:36;-8.90;95.70
7606;DHT22;3844;53.360;9.738;2022-12-18T02:02:36;-8.90;95.70
7606;DHT22;3844;53.360;9.738;2022-12-18T02:04:41;-8.90;95.70
7606;DHT22;3844;53.360;9.738;2022-12-18T02:06:42;-8.80;95.70
7606;DHT22;3844;53.360;9.738;2022-12-18T02:13:20;-8.80;95.70
7606;DHT22;3844;53.360;9.738;2022-12-18T02:15:44;-8.80;95.70
7606;DHT22;3844;53.360;9.738;2022-12-18T02:17:55;-8.80;95.70
7606;DHT22;3844;53.360;9.738;2022-12-18T02:24:59;-8.90;95.70
7606;DHT22;3844;53.360;9.738;2022-12-18T02:27:05;-8.90;95.70
7606;DHT22;3844;53.360;9.738;2022-12-18T02:29:13;-8.90;95.70
7606;DHT22;3844;53.360;9.738;2022-12-18T02:31:19;-8.90;95.70
7606;DHT22;3844;53.360;9.738;2022-12-18T02:33:25;-9.00;95.70
7606;DHT22;3844;53.360;9.738;2022-12-18T02:35:29;-9.00;95.70
7606;DHT22;3844;53.360;9.738;2022-12-18T02:37:31;-9.10;95.70
7606;DHT22;3844;53.360;9.738;2022-12-18T02:39:33;-9.20;95.70
7606;DHT22;3844;53.360;9.738;2022-12-18T02:41:34;-9.20;95.70
7606;DHT22;3844;53.360;9.738;2022-12-18T02:43:37;-9.20;95.70
7606;DHT22;3844;53.360;9.738;2022-12-18T02:45:58;-9.20;95.70
7606;DHT22;3844;53.360;9.738;2022-12-18T02:47:59;-9.20;95.70
7606;DHT22;3844;53.360;9.738;2022-12-18T02:50:26;-9.20;95.70
7606;DHT22;3844;53.360;9.738;2022-12-18T02:56:46;-9.30;95.70
7606;DHT22;3844;53.360;9.738;2022-12-18T03:03:33;-9.40;95.70
7606;DHT22;3844;53.360;9.738;2022-12-18T03:05:52;-9.40;95.70
7606;DHT22;3844;53.360;9.738;2022-12-18T03:08:00;-9.40;95.70
7606;DHT22;3844;53.360;9.738;2022-12-18T03:10:03;-9.30;95.70
7606;DHT22;3844;53.360;9.738;2022-12-18T03:12:17;-9.40;95.70
7606;DHT22;3844;53.360;9.738;2022-12-18T03:14:25;-9.30;95.70
7606;DHT22;3844;53.360;9.738;2022-12-18T03:16:28;-9.30;95.70
7606;DHT22;3844;53.360;9.738;2022-12-18T03:18:38;-9.30;95.70
7606;DHT22;3844;53.360;9.738;2022-12-18T03:20:44;-9.30;95.70
7606;DHT22;3844;53.360;9.738;2022-12-18T03:22:49;-9.30;95.70
7606;DHT22;3844;53.360;9.738;2022-12-18T03:24:56;-9.40;95.70
7606;DHT22;3844;53.360;9.738;2022-12-18T03:27:02;-9.40;95.70
7606;DHT22;3844;53.360;9.738;2022-12-18T03:29:08;-9.40;95.70
7606;DHT22;3844;53.360;9.738;2022-12-18T03:31:12;-9.40;95.70
7606;DHT22;3844;53.360;9.738;2022-12-18T03:33:23;-9.40;95.70
7606;DHT22;3844;53.360;9.738;2022-12-18T03:35:30;-9.40;95.70
7606;DHT22;3844;53.360;9.738;2022-12-18T03:37:31;-9.30;95.70
7606;DHT22;3844;53.360;9.738;2022-12-18T03:39:34;-9.30;95.70
7606;DHT22;3844;53.360;9.738;2022-12-18T03:41:44;-9.30;95.70
7606;DHT22;3844;53.360;9.738;2022-12-18T03:46:02;-9.30;95.70
7606;DHT22;3844;53.360;9.738;2022-12-18T03:48:16;-9.30;95.70
7606;DHT22;3844;53.360;9.738;2022-12-18T03:50:22;-9.40;95.70
7606;DHT22;3844;53.360;9.738;2022-12-18T03:52:32;-9.40;95.70
7606;DHT22;3844;53.360;9.738;2022-12-18T03:54:36;-9.40;95.70
7606;DHT22;3844;53.360;9.738;2022-12-18T03:56:42;-9.40;95.70
7606;DHT22;3844;53.360;9.738;2022-12-18T03:58:45;-9.40;95.70
7606;DHT22;3844;53.360;9.738;2022-12-18T04:00:48;-9.40;95.70
7606;DHT22;3844;53.360;9.738;2022-12-18T04:02:52;-9.30;95.70
7606;DHT22;3844;53.360;9.738;2022-12-18T04:04:57;-9.30;95.70
7606;DHT22;3844;53.360;9.738;2022-12-18T04:06:59;-9.30;95.70
7606;DHT22;3844;53.360;9.738;2022-12-18T04:09:00;-9.30;95.70
7606;DHT22;3844;53.360;9.738;2022-12-18T04:11:02;-9.30;95.70
7606;DHT22;3844;53.360;9.738;2022-12-18T04:15:05;-9.40;95.70
7606;DHT22;3844;53.360;9.738;2022-12-18T04:17:06;-9.40;95.70
7606;DHT22;3844;53.360;9.738;2022-12-18T04:19:07;-9.40;95.70
7606;DHT22;3844;53.360;9.738;2022-12-18T04:21:07;-9.40;95.70
7606;DHT22;3844;53.360;9.738;2022-12-18T04:23:08;-9.40;95.70
7606;DHT22;3844;53.360;9.738;2022-12-18T04:25:12;-9.40;95.70
7606;DHT22;3844;53.360;9.738;2022-12-18T04:27:13;-9.40;95.70
7606;DHT22;3844;53.360;9.738;2022-12-18T04:29:14;-9.40;95.70
7606;DHT22;3844;53.360;9.738;2022-12-18T04:31:15;-9.50;95.70
7606;DHT22;3844;53.360;9.738;2022-12-18T04:33:19;-9.40;95.70
7606;DHT22;3844;53.360;9.738;2022-12-18T04:35:20;-9.40;95.70
7606;DHT22;3844;53.360;9.738;2022-12-18T04:37:21;-9.40;95.70
7606;DHT22;3844;53.360;9.738;2022-12-18T04:39:21;-9.50;95.70
7606;DHT22;3844;53.360;9.738;2022-12-18T04:41:22;-9.50;95.70
7606;DHT22;3844;53.360;9.738;2022-12-18T04:43:23;-9.50;95.70
7606;DHT22;3844;53.360;9.738;2022-12-18T04:45:24;-9.50;95.70
7606;DHT22;3844;53.360;9.738;2022-12-18T04:47:24;-9.50;95.70
7606;DHT22;3844;53.360;9.738;2022-12-18T04:49:25;-9.50;95.70
7606;DHT22;3844;53.360;9.738;2022-12-18T04:51:26;-9.50;95.70
7606;DHT22;3844;53.360;9.738;2022-12-18T04:53:27;-9.50;95.70
7606;DHT22;3844;53.360;9.738;2022-12-18T04:55:28;-9.50;95.70
7606;DHT22;3844;53.360;9.738;2022-12-18T04:57:28;-9.50;95.70
7606;DHT22;3844;53.360;9.738;2022-12-18T04:59:30;-9.60;95.70
7606;DHT22;3844;53.360;9.738;2022-12-18T05:01:33;-9.60;95.70
7606;DHT22;3844;53.360;9.738;2022-12-18T05:03:35;-9.60;95.70
7606;DHT22;3844;53.360;9.738;2022-12-18T05:05:36;-9.60;95.70
7606;DHT22;3844;53.360;9.738;2022-12-18T05:07:37;-9.50;95.70
7606;DHT22;3844;53.360;9.738;2022-12-18T05:09:37;-9.50;95.70
7606;DHT22;3844;53.360;9.738;2022-12-18T05:11:38;-9.50;95.70
7606;DHT22;3844;53.360;9.738;2022-12-18T05:13:39;-9.50;95.70
7606;DHT22;3844;53.360;9.738;2022-12-18T05:15:40;-9.50;95.70
7606;DHT22;3844;53.360;9.738;2022-12-18T05:17:42;-9.50;95.70
7606;DHT22;3844;53.360;9.738;2022-12-18T05:19:42;-9.50;95.70
7606;DHT22;3844;53.360;9.738;2022-12-18T05:21:44;-9.50;95.70
7606;DHT22;3844;53.360;9.738;2022-12-18T05:23:44;-9.50;95.70
7606;DHT22;3844;53.360;9.738;2022-12-18T05:25:58;-9.50;95.70
7606;DHT22;3844;53.360;9.738;2022-12-18T05:27:59;-9.50;95.70
7606;DHT22;3844;53.360;9.738;2022-12-18T05:30:00;-9.50;95.70
7606;DHT22;3844;53.360;9.738;2022-12-18T05:32:00;-9.60;95.70
7606;DHT22;3844;53.360;9.738;2022-12-18T05:34:01;-9.60;95.70
7606;DHT22;3844;53.360;9.738;2022-12-18T05:36:04;-9.60;95.70
7606;DHT22;3844;53.360;9.738;2022-12-18T05:38:05;-9.60;95.70
7606;DHT22;3844;53.360;9.738;2022-12-18T05:40:07;-9.60;95.70
7606;DHT22;3844;53.360;9.738;2022-12-18T05:42:08;-9.60;95.70
7606;DHT22;3844;53.360;9.738;2022-12-18T05:44:08;-9.60;95.70
7606;DHT22;3844;53.360;9.738;2022-12-18T05:46:14;-9.60;95.70
7606;DHT22;3844;53.360;9.738;2022-12-18T05:48:16;-9.60;95.70
7606;DHT22;3844;53.360;9.738;2022-12-18T05:50:17;-9.60;95.70
7606;DHT22;3844;53.360;9.738;2022-12-18T05:52:18;-9.60;95.70
7606;DHT22;3844;53.360;9.738;2022-12-18T05:54:18;-9.60;95.70
7606;DHT22;3844;53.360;9.738;2022-12-18T05:56:21;-9.60;95.70
7606;DHT22;3844;53.360;9.738;2022-12-18T05:58:22;-9.60;95.70
7606;DHT22;3844;53.360;9.738;2022-12-18T06:00:23;-9.60;95.70
7606;DHT22;3844;53.360;9.738;2022-12-18T06:02:24;-9.60;95.70
7606;DHT22;3844;53.360;9.738;2022-12-18T06:04:27;-9.60;95.70
7606;DHT22;3844;53.360;9.738;2022-12-18T06:06:29;-9.60;95.70
7606;DHT22;3844;53.360;9.738;2022-12-18T06:08:29;-9.60;95.70
7606;DHT22;3844;53.360;9.738;2022-12-18T06:10:30;-9.60;95.70
7606;DHT22;3844;53.360;9.738;2022-12-18T06:12:31;-9.70;95.70
7606;DHT22;3844;53.360;9.738;2022-12-18T06:16:34;-9.70;95.70
7606;DHT22;3844;53.360;9.738;2022-12-18T06:18:38;-9.80;95.70
7606;DHT22;3844;53.360;9.738;2022-12-18T06:20:39;-9.80;95.70
7606;DHT22;3844;53.360;9.738;2022-12-18T06:22:41;-9.80;95.70
7606;DHT22;3844;53.360;9.738;2022-12-18T06:24:42;-9.80;95.70
7606;DHT22;3844;53.360;9.738;2022-12-18T06:26:43;-9.80;95.70
7606;DHT22;3844;53.360;9.738;2022-12-18T06:28:44;-9.80;95.70
7606;DHT22;3844;53.360;9.738;2022-12-18T06:30:46;-9.80;95.70
7606;DHT22;3844;53.360;9.738;2022-12-18T06:32:48;-9.90;95.70
7606;DHT22;3844;53.360;9.738;2022-12-18T06:34:49;-9.90;95.70
7606;DHT22;3844;53.360;9.738;2022-12-18T06:36:50;-9.90;95.70
7606;DHT22;3844;53.360;9.738;2022-12-18T06:38:50;-9.90;95.70
7606;DHT22;3844;53.360;9.738;2022-12-18T06:40:51;-9.90;95.70
7606;DHT22;3844;53.360;9.738;2022-12-18T06:42:55;-9.90;95.70
7606;DHT22;3844;53.360;9.738;2022-12-18T06:44:56;-9.80;95.70
7606;DHT22;3844;53.360;9.738;2022-12-18T06:46:56;-9.80;95.70
7606;DHT22;3844;53.360;9.738;2022-12-18T06:48:57;-9.80;95.70
7606;DHT22;3844;53.360;9.738;2022-12-18T06:50:58;-9.80;95.70
7606;DHT22;3844;53.360;9.738;2022-12-18T06:52:59;-9.80;95.70
7606;DHT22;3844;53.360;9.738;2022-12-18T06:55:00;-9.80;95.70
7606;DHT22;3844;53.360;9.738;2022-12-18T06:57:01;-9.80;95.70
7606;DHT22;3844;53.360;9.738;2022-12-18T06:59:02;-9.80;95.70
7606;DHT22;3844;53.360;9.738;2022-12-18T07:01:04;-9.80;95.70
7606;DHT22;3844;53.360;9.738;2022-12-18T07:03:05;-9.70;95.70
7606;DHT22;3844;53.360;9.738;2022-12-18T07:05:06;-9.70;95.70
7606;DHT22;3844;53.360;9.738;2022-12-18T07:07:07;-9.70;95.70
7606;DHT22;3844;53.360;9.738;2022-12-18T07:09:08;-9.60;95.70
7606;DHT22;3844;53.360;9.738;2022-12-18T07:11:09;-9.60;95.70
7606;DHT22;3844;53.360;9.738;2022-12-18T07:13:10;-9.60;95.70
7606;DHT22;3844;53.360;9.738;2022-12-18T07:15:11;-9.60;95.70
7606;DHT22;3844;53.360;9.738;2022-12-18T07:17:12;-9.60;95.70
7606;DHT22;3844;53.360;9.738;2022-12-18T07:19:13;-9.60;95.70
7606;DHT22;3844;53.360;9.738;2022-12-18T07:21:16;-9.60;95.70
7606;DHT22;3844;53.360;9.738;2022-12-18T07:23:17;-9.60;95.70
7606;DHT22;3844;53.360;9.738;2022-12-18T07:25:18;-9.50;95.70
7606;DHT22;3844;53.360;9.738;2022-12-18T07:27:19;-9.50;95.70
7606;DHT22;3844;53.360;9.738;2022-12-18T07:29:20;-9.50;95.70
7606;DHT22;3844;53.360;9.738;2022-12-18T07:31:21;-9.40;95.70
7606;DHT22;3844;53.360;9.738;2022-12-18T07:33:22;-9.40;95.70
7606;DHT22;3844;53.360;9.738;2022-12-18T07:35:23;-9.40;95.70
7606;DHT22;3844;53.360;9.738;2022-12-18T07:37:24;-9.40;95.70
7606;DHT22;3844;53.360;9.738;2022-12-18T07:39:24;-9.30;95.70
7606;DHT22;3844;53.360;9.738;2022-12-18T07:41:25;-9.30;95.70
7606;DHT22;3844;53.360;9.738;2022-12-18T07:43:26;-9.30;95.70
7606;DHT22;3844;53.360;9.738;2022-12-18T07:45:27;-9.20;95.70
7606;DHT22;3844;53.360;9.738;2022-12-18T07:47:28;-9.20;95.70
7606;DHT22;3844;53.360;9.738;2022-12-18T07:49:29;-9.20;95.70
7606;DHT22;3844;53.360;9.738;2022-12-18T07:51:30;-9.10;95.70
7606;DHT22;3844;53.360;9.738;2022-12-18T07:53:31;-9.10;95.70
7606;DHT22;3844;53.360;9.738;2022-12-18T07:55:33;-9.00;95.70
7606;DHT22;3844;53.360;9.738;2022-12-18T07:57:33;-9.00;95.70
7606;DHT22;3844;53.360;9.738;2022-12-18T07:59:34;-8.90;95.70
7606;DHT22;3844;53.360;9.738;2022-12-18T08:01:35;-8.80;95.70
7606;DHT22;3844;53.360;9.738;2022-12-18T08:03:36;-8.70;95.70
7606;DHT22;3844;53.360;9.738;2022-12-18T08:07:39;-8.50;95.70
7606;DHT22;3844;53.360;9.738;2022-12-18T08:09:39;-8.40;95.70
7606;DHT22;3844;53.360;9.738;2022-12-18T08:11:40;-8.30;95.70
7606;DHT22;3844;53.360;9.738;2022-12-18T08:13:41;-8.10;95.70
7606;DHT22;3844;53.360;9.738;2022-12-18T08:15:42;-8.00;95.70
7606;DHT22;3844;53.360;9.738;2022-12-18T08:17:43;-7.90;95.70
7606;DHT22;3844;53.360;9.738;2022-12-18T08:19:43;-7.90;95.70
7606;DHT22;3844;53.360;9.738;2022-12-18T08:21:44;-7.90;95.70
7606;DHT22;3844;53.360;9.738;2022-12-18T08:23:45;-7.80;95.70
7606;DHT22;3844;53.360;9.738;2022-12-18T08:25:46;-7.70;95.70
7606;DHT22;3844;53.360;9.738;2022-12-18T08:27:47;-7.70;95.70
7606;DHT22;3844;53.360;9.738;2022-12-18T08:29:47;-7.60;95.70
7606;DHT22;3844;53.360;9.738;2022-12-18T08:31:48;-7.60;95.70
7606;DHT22;3844;53.360;9.738;2022-12-18T08:33:50;-7.60;95.70
7606;DHT22;3844;53.360;9.738;2022-12-18T08:35:51;-7.60;95.70
7606;DHT22;3844;53.360;9.738;2022-12-18T08:37:53;-7.60;95.70
7606;DHT22;3844;53.360;9.738;2022-12-18T08:39:53;-7.60;95.70
7606;DHT22;3844;53.360;9.738;2022-12-18T08:41:54;-7.60;95.70
7606;DHT22;3844;53.360;9.738;2022-12-18T08:44:13;-7.60;95.70
7606;DHT22;3844;53.360;9.738;2022-12-18T08:46:38;-7.50;95.70
7606;DHT22;3844;53.360;9.738;2022-12-18T08:48:39;-7.50;95.70
7606;DHT22;3844;53.360;9.738;2022-12-18T08:50:40;-7.40;95.70
7606;DHT22;3844;53.360;9.738;2022-12-18T08:52:41;-7.40;95.70
7606;DHT22;3844;53.360;9.738;2022-12-18T08:54:42;-7.30;95.70
7606;DHT22;3844;53.360;9.738;2022-12-18T08:56:43;-7.30;95.70
7606;DHT22;3844;53.360;9.738;2022-12-18T08:58:44;-7.20;95.70
7606;DHT22;3844;53.360;9.738;2022-12-18T09:00:48;-7.10;95.70
7606;DHT22;3844;53.360;9.738;2022-12-18T09:04:50;-7.00;95.70
7606;DHT22;3844;53.360;9.738;2022-12-18T09:06:50;-7.00;95.70
7606;DHT22;3844;53.360;9.738;2022-12-18T09:08:51;-6.90;95.70
7606;DHT22;3844;53.360;9.738;2022-12-18T09:10:52;-6.80;95.70
7606;DHT22;3844;53.360;9.738;2022-12-18T09:12:53;-6.80;95.70
7606;DHT22;3844;53.360;9.738;2022-12-18T09:14:54;-6.70;95.70
7606;DHT22;3844;53.360;9.738;2022-12-18T09:16:54;-6.70;95.70
7606;DHT22;3844;53.360;9.738;2022-12-18T09:18:55;-6.60;95.70
7606;DHT22;3844;53.360;9.738;2022-12-18T09:20:59;-6.50;95.70
7606;DHT22;3844;53.360;9.738;2022-12-18T09:23:00;-6.50;95.70
7606;DHT22;3844;53.360;9.738;2022-12-18T09:25:01;-6.40;95.70
7606;DHT22;3844;53.360;9.738;2022-12-18T09:27:02;-6.30;95.70
7606;DHT22;3844;53.360;9.738;2022-12-18T09:29:03;-6.20;95.70
7606;DHT22;3844;53.360;9.738;2022-12-18T09:31:08;-6.20;95.70
7606;DHT22;3844;53.360;9.738;2022-12-18T09:33:08;-6.10;95.70
7606;DHT22;3844;53.360;9.738;2022-12-18T09:35:09;-6.00;95.70
7606;DHT22;3844;53.360;9.738;2022-12-18T09:37:10;-6.00;95.70
7606;DHT22;3844;53.360;9.738;2022-12-18T09:39:11;-5.90;95.70
7606;DHT22;3844;53.360;9.738;2022-12-18T09:43:52;-5.80;95.70
7606;DHT22;3844;53.360;9.738;2022-12-18T09:45:59;-5.70;95.70
7606;DHT22;3844;53.360;9.738;2022-12-18T09:48:02;-5.70;95.70
7606;DHT22;3844;53.360;9.738;2022-12-18T09:50:16;-5.60;95.70
7606;DHT22;3844;53.360;9.738;2022-12-18T09:55:11;-5.50;95.70
7606;DHT22;3844;53.360;9.738;2022-12-18T09:57:17;-5.40;95.70
7606;DHT22;3844;53.360;9.738;2022-12-18T09:59:25;-5.30;95.70
7606;DHT22;3844;53.360;9.738;2022-12-18T10:01:28;-5.30;95.70
7606;DHT22;3844;53.360;9.738;2022-12-18T10:03:29;-5.20;95.70
7606;DHT22;3844;53.360;9.738;2022-12-18T10:05:57;-5.10;95.70
7606;DHT22;3844;53.360;9.738;2022-12-18T10:08:18;-5.00;95.70
7606;DHT22;3844;53.360;9.738;2022-12-18T10:20:09;-4.70;95.70
7606;DHT22;3844;53.360;9.738;2022-12-18T10:24:01;-4.60;95.70
7606;DHT22;3844;53.360;9.738;2022-12-18T10:26:10;-4.50;95.70
7606;DHT22;3844;53.360;9.738;2022-12-18T10:28:13;-4.50;95.70
7606;DHT22;3844;53.360;9.738;2022-12-18T10:30:15;-4.50;95.70
7606;DHT22;3844;53.360;9.738;2022-12-18T10:32:35;-4.30;95.70
7606;DHT22;3844;53.360;9.738;2022-12-18T10:34:36;-4.30;95.70
7606;DHT22;3844;53.360;9.738;2022-12-18T10:36:37;-4.20;95.70
7606;DHT22;3844;53.360;9.738;2022-12-18T10:38:38;-4.10;95.70
7606;DHT22;3844;53.360;9.738;2022-12-18T10:43:13;-3.90;95.70
7606;DHT22;3844;53.360;9.738;2022-12-18T10:45:16;-3.80;95.70
7606;DHT22;3844;53.360;9.738;2022-12-18T10:47:19;-3.80;95.70
7606;DHT22;3844;53.360;9.738;2022-12-18T10:49:27;-3.80;95.70
7606;DHT22;3844;53.360;9.738;2022-12-18T10:51:36;-3.70;95.70
7606;DHT22;3844;53.360;9.738;2022-12-18T10:53:41;-3.70;95.70
7606;DHT22;3844;53.360;9.738;2022-12-18T10:55:46;-3.70;95.70
7606;DHT22;3844;53.360;9.738;2022-12-18T10:57:47;-3.70;95.70
7606;DHT22;3844;53.360;9.738;2022-12-18T10:59:53;-3.70;95.70
7606;DHT22;3844;53.360;9.738;2022-12-18T11:01:56;-3.70;95.70
7606;DHT22;3844;53.360;9.738;2022-12-18T11:03:59;-3.70;95.70
7606;DHT22;3844;53.360;9.738;2022-12-18T11:06:08;-3.70;95.70
7606;DHT22;3844;53.360;9.738;2022-12-18T11:08:20;-3.60;95.70
7606;DHT22;3844;53.360;9.738;2022-12-18T11:10:33;-3.50;95.70
7606;DHT22;3844;53.360;9.738;2022-12-18T11:12:34;-3.40;95.70
7606;DHT22;3844;53.360;9.738;2022-12-18T11:16:49;-3.30;95.70
7606;DHT22;3844;53.360;9.738;2022-12-18T11:18:50;-3.30;95.70
7606;DHT22;3844;53.360;9.738;2022-12-18T11:20:59;-3.20;95.70
7606;DHT22;3844;53.360;9.738;2022-12-18T11:23:05;-3.20;95.70
7606;DHT22;3844;53.360;9.738;2022-12-18T11:27:18;-3.00;95.70
7606;DHT22;3844;53.360;9.738;2022-12-18T11:29:27;-2.80;95.70
7606;DHT22;3844;53.360;9.738;2022-12-18T11:31:29;-2.70;95.70
7606;DHT22;3844;53.360;9.738;2022-12-18T11:33:33;-2.60;95.70
7606;DHT22;3844;53.360;9.738;2022-12-18T11:35:49;-2.60;95.70
7606;DHT22;3844;53.360;9.738;2022-12-18T11:38:16;-2.50;95.70
7606;DHT22;3844;53.360;9.738;2022-12-18T11:40:22;-2.40;95.70
7606;DHT22;3844;53.360;9.738;2022-12-18T11:47:37;-2.30;95.70
7606;DHT22;3844;53.360;9.738;2022-12-18T11:49:40;-2.30;95.70
7606;DHT22;3844;53.360;9.738;2022-12-18T11:51:50;-2.30;95.70
7606;DHT22;3844;53.360;9.738;2022-12-18T11:53:52;-2.20;95.70
7606;DHT22;3844;53.360;9.738;2022-12-18T12:00:21;-2.20;95.70
7606;DHT22;3844;53.360;9.738;2022-12-18T12:10:32;-2.10;95.70
7606;DHT22;3844;53.360;9.738;2022-12-18T12:13:03;-2.00;95.70
7606;DHT22;3844;53.360;9.738;2022-12-18T12:17:45;-1.90;95.70
7606;DHT22;3844;53.360;9.738;2022-12-18T12:22:22;-1.70;95.70
7606;DHT22;3844;53.360;9.738;2022-12-18T12:38:45;-1.50;95.70
7606;DHT22;3844;53.360;9.738;2022-12-18T12:41:07;-1.40;95.70
7606;DHT22;3844;53.360;9.738;2022-12-18T12:43:45;-1.40;95.70
7606;DHT22;3844;53.360;9.738;2022-12-18T12:47:57;-1.30;95.70
7606;DHT22;3844;53.360;9.738;2022-12-18T12:50:03;-1.30;95.70
7606;DHT22;3844;53.360;9.738;2022-12-18T12:52:06;-1.30;95.70
7606;DHT22;3844;53.360;9.738;2022-12-18T12:54:21;-1.30;95.70
7606;DHT22;3844;53.360;9.738;2022-12-18T12:56:29;-1.30;95.70
7606;DHT22;3844;53.360;9.738;2022-12-18T13:03:08;-1.30;95.70
7606;DHT22;3844;53.360;9.738;2022-12-18T13:05:34;-1.30;95.70
7606;DHT22;3844;53.360;9.738;2022-12-18T13:07:39;-1.30;95.70
7606;DHT22;3844;53.360;9.738;2022-12-18T13:12:25;-1.40;95.70
7606;DHT22;3844;53.360;9.738;2022-12-18T13:14:44;-1.40;95.70
7606;DHT22;3844;53.360;9.738;2022-12-18T13:16:45;-1.40;95.70
7606;DHT22;3844;53.360;9.738;2022-12-18T13:18:56;-1.40;95.70
7606;DHT22;3844;53.360;9.738;2022-12-18T13:22:58;-1.50;95.70
7606;DHT22;3844;53.360;9.738;2022-12-18T13:25:00;-1.50;95.70
7606;DHT22;3844;53.360;9.738;2022-12-18T13:28:06;-1.50;95.70
7606;DHT22;3844;53.360;9.738;2022-12-18T13:29:45;-1.60;95.70
7606;DHT22;3844;53.360;9.738;2022-12-18T13:33:47;-1.60;95.70
7606;DHT22;3844;53.360;9.738;2022-12-18T13:37:54;-1.60;95.70
7606;DHT22;3844;53.360;9.738;2022-12-18T13:39:55;-1.70;95.70
7606;DHT22;3844;53.360;9.738;2022-12-18T13:46:27;-1.70;95.70
7606;DHT22;3844;53.360;9.738;2022-12-18T13:48:32;-1.70;95.70
7606;DHT22;3844;53.360;9.738;2022-12-18T13:50:33;-1.80;95.70
7606;DHT22;3844;53.360;9.738;2022-12-18T13:52:37;-1.80;95.70
7606;DHT22;3844;53.360;9.738;2022-12-18T13:54:40;-1.90;95.70
7606;DHT22;3844;53.360;9.738;2022-12-18T13:56:44;-2.00;95.70
7606;DHT22;3844;53.360;9.738;2022-12-18T13:58:45;-2.00;95.70
7606;DHT22;3844;53.360;9.738;2022-12-18T14:00:46;-2.10;95.70
7606;DHT22;3844;53.360;9.738;2022-12-18T14:02:47;-2.10;95.70
7606;DHT22;3844;53.360;9.738;2022-12-18T14:04:49;-2.10;95.70
7606;DHT22;3844;53.360;9.738;2022-12-18T14:06:54;-2.20;95.70
7606;DHT22;3844;53.360;9.738;2022-12-18T14:08:56;-2.30;95.70
7606;DHT22;3844;53.360;9.738;2022-12-18T14:10:57;-2.30;95.70
7606;DHT22;3844;53.360;9.738;2022-12-18T14:13:08;-2.40;95.70
7606;DHT22;3844;53.360;9.738;2022-12-18T14:15:34;-2.50;95.70
7606;DHT22;3844;53.360;9.738;2022-12-18T14:17:36;-2.60;95.70
7606;DHT22;3844;53.360;9.738;2022-12-18T14:19:40;-2.60;95.70
7606;DHT22;3844;53.360;9.738;2022-12-18T14:21:46;-2.70;95.70
7606;DHT22;3844;53.360;9.738;2022-12-18T14:23:48;-2.70;95.70
7606;DHT22;3844;53.360;9.738;2022-12-18T14:25:48;-2.80;95.70
7606;DHT22;3844;53.360;9.738;2022-12-18T14:32:23;-2.80;95.70
7606;DHT22;3844;53.360;9.738;2022-12-18T14:34:26;-2.80;95.70
7606;DHT22;3844;53.360;9.738;2022-12-18T14:36:28;-2.80;95.70
7606;DHT22;3844;53.360;9.738;2022-12-18T14:38:37;-2.80;95.70
7606;DHT22;3844;53.360;9.738;2022-12-18T14:40:38;-2.80;95.70
7606;DHT22;3844;53.360;9.738;2022-12-18T14:42:39;-2.90;95.70
7606;DHT22;3844;53.360;9.738;2022-12-18T14:44:39;-2.90;95.70
7606;DHT22;3844;53.360;9.738;2022-12-18T14:46:43;-2.90;95.70
7606;DHT22;3844;53.360;9.738;2022-12-18T14:48:47;-2.90;95.70
7606;DHT22;3844;53.360;9.738;2022-12-18T14:50:57;-2.90;95.70
7606;DHT22;3844;53.360;9.738;2022-12-18T14:52:58;-3.00;95.70
7606;DHT22;3844;53.360;9.738;2022-12-18T14:54:59;-3.00;95.70
7606;DHT22;3844;53.360;9.738;2022-12-18T14:57:03;-3.10;95.70
7606;DHT22;3844;53.360;9.738;2022-12-18T14:59:11;-3.10;95.70
7606;DHT22;3844;53.360;9.738;2022-12-18T15:01:28;-3.10;95.70
7606;DHT22;3844;53.360;9.738;2022-12-18T15:03:29;-3.20;95.70
7606;DHT22;3844;53.360;9.738;2022-12-18T15:05:31;-3.20;95.70
7606;DHT22;3844;53.360;9.738;2022-12-18T15:07:53;-3.20;95.70
7606;DHT22;3844;53.360;9.738;2022-12-18T15:12:34;-3.30;95.70
7606;DHT22;3844;53.360;9.738;2022-12-18T15:14:40;-3.40;95.70
7606;DHT22;3844;53.360;9.738;2022-12-18T15:16:41;-3.40;95.70
7606;DHT22;3844;53.360;9.738;2022-12-18T15:18:43;-3.40;95.70
7606;DHT22;3844;53.360;9.738;2022-12-18T15:21:07;-3.50;95.70
7606;DHT22;3844;53.360;9.738;2022-12-18T15:23:33;-3.60;95.70
7606;DHT22;3844;53.360;9.738;2022-12-18T15:25:36;-3.60;95.70
7606;DHT22;3844;53.360;9.738;2022-12-18T15:27:38;-3.60;95.70